Time;durP1;ratioP1;P1;durP2;ratioP2;P2;SDS_P1;SDS_P2;PMS_P1;PMS_P2;Temp;Humidity;BMP_temperature;BMP_pressure;BME280_temperature;BME280_humidity;BME280_pressure;Samples;Min_cycle;Max_cycle;Signal;HPM_P1;HPM_P2
2022/10/13 00:01:20;;;;;;;5.87;4.73;;;;;;;10.87;100.00;95234.19;5093669;28;20283;-64
2022/10/13 00:03:46;;;;;;;6.37;4.93;;;;;;;10.74;100.00;95218.25;5093776;28;20212;-63
2022/10/13 00:06:15;;;;;;;6.03;4.97;;;;;;;10.83;100.00;95222.63;5093695;28;20188;-66
2022/10/13 00:08:42;;;;;;;6.03;4.80;;;;;;;10.80;100.00;95210.97;5093491;28;20192;-64
2022/10/13 00:11:14;;;;;;;8.40;4.60;;;;;;;10.98;100.00;95262.97;5093720;28;20211;-66
2022/10/13 00:13:40;;;;;;;7.40;4.50;;;;;;;10.88;100.00;95261.25;5093717;28;20284;-65
2022/10/13 00:16:06;;;;;;;5.83;4.50;;;;;;;10.82;100.00;95269.34;5093284;28;20184;-67
2022/10/13 00:18:32;;;;;;;7.10;4.77;;;;;;;10.85;100.00;95252.13;5092097;28;20192;-65
2022/10/13 00:20:58;;;;;;;6.73;4.33;;;;;;;10.85;100.00;95258.94;5093386;28;20194;-64
2022/10/13 00:23:23;;;;;;;6.93;4.93;;;;;;;10.87;100.00;95213.84;5093391;28;20660;-66
2022/10/13 00:25:50;;;;;;;5.87;3.90;;;;;;;10.91;100.00;95217.75;5093305;28;20187;-65
2022/10/13 00:28:18;;;;;;;4.90;4.40;;;;;;;11.00;100.00;95209.44;5093146;28;20662;-64
2022/10/13 00:30:45;;;;;;;5.17;4.57;;;;;;;11.12;100.00;95220.38;5093287;28;20215;-64
2022/10/13 00:33:12;;;;;;;9.27;5.63;;;;;;;11.22;100.00;95264.56;5093192;28;20192;-66
2022/10/13 00:35:46;;;;;;;9.20;5.50;;;;;;;11.18;100.00;95223.28;5093029;28;20208;-63
2022/10/13 00:38:12;;;;;;;6.07;4.60;;;;;;;11.30;100.00;95236.78;5093126;28;20192;-63
2022/10/13 00:40:49;;;;;;;6.27;4.57;;;;;;;11.22;100.00;95234.81;5093004;28;20243;-64
2022/10/13 00:43:22;;;;;;;7.50;4.80;;;;;;;11.17;100.00;95223.41;5093408;28;20225;-66
2022/10/13 00:45:49;;;;;;;6.67;4.43;;;;;;;11.13;100.00;95216.94;5092825;28;20244;-67
2022/10/13 00:48:17;;;;;;;7.93;4.70;;;;;;;11.03;100.00;95198.22;5093321;28;20192;-68
2022/10/13 00:50:44;;;;;;;7.83;5.20;;;;;;;10.95;100.00;95179.25;5091517;28;20215;-67
2022/10/13 00:53:11;;;;;;;7.03;4.87;;;;;;;10.97;100.00;95146.06;5092924;28;20253;-64
2022/10/13 00:55:40;;;;;;;9.17;5.60;;;;;;;10.99;100.00;95144.19;5092787;28;20240;-65
2022/10/13 00:58:08;;;;;;;8.47;5.10;;;;;;;11.12;100.00;95124.50;5092915;28;20189;-66
2022/10/13 01:00:34;;;;;;;7.90;6.13;;;;;;;11.17;100.00;95145.28;5092639;28;20284;-67
2022/10/13 01:03:01;;;;;;;7.57;5.73;;;;;;;11.11;100.00;95142.44;5092536;28;20702;-64
2022/10/13 01:05:27;;;;;;;6.33;5.33;;;;;;;11.20;100.00;95179.88;5092472;28;20208;-63
2022/10/13 01:07:53;;;;;;;7.20;5.10;;;;;;;11.11;100.00;95178.06;5090595;28;20188;-66
2022/10/13 01:10:43;;;;;;;8.47;5.40;;;;;;;11.03;100.00;95171.03;5092581;28;20327;-63
2022/10/13 01:13:37;;;;;;;6.47;5.30;;;;;;;10.90;100.00;95137.31;5092987;28;20235;-66
2022/10/13 01:16:13;;;;;;;7.43;4.70;;;;;;;11.04;100.00;95131.13;5085007;28;20238;-63
2022/10/13 01:19:12;;;;;;;7.97;5.77;;;;;;;11.12;100.00;95138.97;5091127;28;20187;-65
2022/10/13 01:22:04;;;;;;;7.70;5.83;;;;;;;11.04;100.00;95131.94;5092412;28;20230;-67
2022/10/13 01:24:42;;;;;;;6.17;5.57;;;;;;;10.91;100.00;95126.19;5092415;28;20262;-64
2022/10/13 01:27:19;;;;;;;8.30;5.20;;;;;;;10.87;100.00;95124.81;5092514;28;20199;-63
2022/10/13 01:30:05;;;;;;;6.90;5.73;;;;;;;11.08;100.00;95135.88;5092383;28;20656;-62
2022/10/13 01:32:33;;;;;;;8.90;6.17;;;;;;;11.03;100.00;95134.63;5091731;28;20196;-65
2022/10/13 01:35:25;;;;;;;7.33;5.70;;;;;;;11.09;100.00;95140.00;5092040;28;20200;-66
2022/10/13 01:38:02;;;;;;;7.37;5.37;;;;;;;11.05;100.00;95148.81;5091015;28;20192;-66
2022/10/13 01:40:35;;;;;;;6.47;5.80;;;;;;;10.79;100.00;95137.31;5092219;28;20211;-67
2022/10/13 01:43:27;;;;;;;8.33;5.40;;;;;;;10.78;100.00;95139.09;5092114;28;20202;-65
2022/10/13 01:46:02;;;;;;;7.37;6.37;;;;;;;10.77;100.00;95137.44;5091901;28;20180;-65
2022/10/13 01:48:28;;;;;;;7.97;5.67;;;;;;;10.61;100.00;95133.66;5092029;28;20186;-66
2022/10/13 01:50:57;;;;;;;7.03;5.87;;;;;;;10.57;100.00;95134.81;5080305;22;20225;-62
2022/10/13 01:53:23;;;;;;;8.87;6.23;;;;;;;10.58;100.00;95134.72;5071654;28;20215;-64
2022/10/13 01:55:54;;;;;;;7.57;6.53;;;;;;;10.58;100.00;95136.44;5052046;28;20280;-62
2022/10/13 01:58:21;;;;;;;10.03;6.53;;;;;;;10.58;100.00;95141.53;5051561;28;20568;-65
2022/10/13 02:01:29;;;;;;;8.93;6.93;;;;;;;10.43;100.00;95147.78;5051731;28;20216;-63
2022/10/13 02:04:19;;;;;;;7.50;6.33;;;;;;;10.45;100.00;95145.94;5050766;28;20696;-63
2022/10/13 02:06:57;;;;;;;8.83;6.73;;;;;;;10.53;100.00;95146.16;5071508;22;20220;-61
2022/10/13 02:09:40;;;;;;;11.40;7.60;;;;;;;10.57;100.00;95147.53;5071354;28;20681;-61
2022/10/13 02:12:11;;;;;;;9.93;7.20;;;;;;;10.42;100.00;95139.38;5071310;28;20189;-62
2022/10/13 02:14:41;;;;;;;14.10;8.27;;;;;;;10.30;100.00;95163.16;5071098;28;20216;-65
2022/10/13 02:17:06;;;;;;;13.30;8.60;;;;;;;10.37;100.00;95149.06;5071385;28;20253;-67
2022/10/13 02:19:37;;;;;;;13.13;8.50;;;;;;;10.27;100.00;95154.94;5052852;28;20208;-63
2022/10/13 02:22:05;;;;;;;9.70;7.93;;;;;;;10.35;100.00;95157.72;5071146;28;20241;-61
2022/10/13 02:24:31;;;;;;;10.53;7.80;;;;;;;10.24;100.00;95150.13;5070926;28;20224;-61
2022/10/13 02:26:57;;;;;;;13.07;8.37;;;;;;;10.30;100.00;95149.66;5070954;28;20196;-62
2022/10/13 02:29:23;;;;;;;10.93;8.43;;;;;;;10.30;100.00;95150.47;5053013;28;20289;-60
2022/10/13 02:31:49;;;;;;;11.57;7.70;;;;;;;10.47;100.00;95149.16;5071042;28;20236;-62
2022/10/13 02:34:15;;;;;;;10.37;7.23;;;;;;;10.39;100.00;95143.84;5071042;28;20649;-61
2022/10/13 02:36:41;;;;;;;12.80;8.37;;;;;;;10.43;100.00;95146.06;5071102;28;20200;-65
2022/10/13 02:39:08;;;;;;;15.13;8.37;;;;;;;10.51;100.00;95142.91;5052968;28;20251;-63
2022/10/13 02:41:33;;;;;;;11.67;8.17;;;;;;;10.37;100.00;95133.81;5071380;28;20200;-64
2022/10/13 02:43:59;;;;;;;12.60;7.87;;;;;;;10.49;100.00;95139.69;5070682;28;20678;-60
2022/10/13 02:46:24;;;;;;;11.60;8.47;;;;;;;10.44;100.00;95141.78;5071241;28;20196;-64
2022/10/13 02:48:50;;;;;;;13.23;8.73;;;;;;;10.43;100.00;95135.88;5070717;28;20262;-66
2022/10/13 02:51:15;;;;;;;10.80;8.10;;;;;;;10.52;100.00;95140.28;5070777;28;20549;-63
2022/10/13 02:53:41;;;;;;;14.23;8.90;;;;;;;10.50;100.00;95138.78;5070618;28;20185;-63
2022/10/13 02:56:07;;;;;;;11.73;8.20;;;;;;;10.41;100.00;95137.75;5070877;28;20281;-62
2022/10/13 02:58:34;;;;;;;12.50;8.07;;;;;;;10.52;100.00;95131.84;5052712;28;20234;-62
2022/10/13 03:01:11;;;;;;;10.23;8.13;;;;;;;10.38;100.00;95130.38;5070385;28;20185;-64
2022/10/13 03:03:37;;;;;;;12.47;8.33;;;;;;;10.45;100.00;95131.50;5070471;28;20224;-65
2022/10/13 03:06:03;;;;;;;10.27;8.00;;;;;;;10.47;100.00;95131.38;5071038;28;20193;-62
2022/10/13 03:08:31;;;;;;;11.27;8.17;;;;;;;10.46;100.00;95122.97;5070560;28;20199;-62
2022/10/13 03:10:57;;;;;;;13.77;8.30;;;;;;;10.35;100.00;95139.94;5070862;28;20193;-61
2022/10/13 03:13:22;;;;;;;12.17;8.60;;;;;;;10.48;100.00;95125.38;5052855;28;20250;-66
2022/10/13 03:15:48;;;;;;;12.57;8.17;;;;;;;10.41;100.00;95124.22;5070640;28;20205;-66
2022/10/13 03:18:13;;;;;;;11.00;7.87;;;;;;;10.59;100.00;95130.44;5070490;28;20185;-65
2022/10/13 03:20:39;;;;;;;10.97;8.00;;;;;;;10.43;100.00;95127.44;5070501;28;20209;-63
2022/10/13 03:23:05;;;;;;;10.77;8.40;;;;;;;10.51;100.00;95132.75;5070467;28;20654;-63
2022/10/13 03:25:32;;;;;;;10.07;8.47;;;;;;;10.48;100.00;95138.09;5070219;28;20215;-66
2022/10/13 03:27:58;;;;;;;12.20;8.67;;;;;;;10.50;100.00;95143.84;5070258;28;20200;-68
2022/10/13 03:30:24;;;;;;;11.17;8.20;;;;;;;10.73;100.00;95143.69;5071919;28;20216;-65
2022/10/13 03:32:50;;;;;;;11.47;8.07;;;;;;;10.72;100.00;95141.28;5056052;28;20181;-67
2022/10/13 03:35:15;;;;;;;10.17;7.53;;;;;;;10.83;100.00;95146.31;5074006;28;20232;-65
2022/10/13 03:37:41;;;;;;;11.00;8.97;;;;;;;10.81;100.00;95146.47;5055814;28;20267;-64
2022/10/13 03:40:08;;;;;;;11.57;8.33;;;;;;;10.66;100.00;95141.75;5073482;28;20217;-64
2022/10/13 03:42:35;;;;;;;11.67;9.27;;;;;;;10.66;100.00;95144.31;5055650;28;20254;-66
2022/10/13 03:45:01;;;;;;;14.50;9.60;;;;;;;10.63;100.00;95141.97;5073422;28;20221;-66
2022/10/13 03:47:27;;;;;;;13.23;8.97;;;;;;;10.67;100.00;95148.44;5073612;28;20571;-66
2022/10/13 03:49:54;;;;;;;12.90;9.23;;;;;;;10.72;100.00;95149.72;5073601;28;20204;-61
2022/10/13 03:52:20;;;;;;;12.93;9.50;;;;;;;10.78;100.00;95151.78;5073641;28;20189;-64
2022/10/13 03:54:46;;;;;;;14.03;9.60;;;;;;;10.66;100.00;95139.22;5055408;28;20212;-61
2022/10/13 03:57:11;;;;;;;14.73;8.83;;;;;;;10.61;100.00;95134.47;5073452;28;20188;-62
2022/10/13 03:59:39;;;;;;;12.93;8.87;;;;;;;10.73;100.00;95135.25;5073220;28;20339;-61
2022/10/13 04:02:05;;;;;;;16.27;8.50;;;;;;;10.60;100.00;95134.59;5073300;28;20193;-63
2022/10/13 04:04:30;;;;;;;14.23;9.33;;;;;;;10.52;100.00;95135.19;5073167;28;20690;-61
2022/10/13 04:06:55;;;;;;;12.93;8.93;;;;;;;10.49;100.00;95124.44;5073271;28;20659;-61
2022/10/13 04:09:21;;;;;;;13.33;9.40;;;;;;;10.47;100.00;95126.28;5080068;22;20661;-62
2022/10/13 04:11:50;;;;;;;13.37;8.93;;;;;;;10.38;100.00;95127.00;5073262;28;20271;-65
2022/10/13 04:14:15;;;;;;;14.33;9.67;;;;;;;10.30;100.00;95136.94;5073016;28;20224;-67
2022/10/13 04:16:41;;;;;;;13.23;9.17;;;;;;;10.41;100.00;95129.28;5073251;28;20593;-64
2022/10/13 04:19:06;;;;;;;12.37;9.10;;;;;;;10.50;100.00;95128.59;5072897;28;20220;-66
2022/10/13 04:21:33;;;;;;;15.93;10.13;;;;;;;10.37;100.00;95130.47;5055163;28;20185;-63
2022/10/13 04:24:00;;;;;;;16.70;10.03;;;;;;;10.37;100.00;95123.66;5073156;28;20307;-65
2022/10/13 04:26:28;;;;;;;12.60;9.47;;;;;;;10.23;100.00;95126.44;5072954;28;20193;-64
2022/10/13 04:28:54;;;;;;;14.53;10.00;;;;;;;10.22;100.00;95124.78;5054631;28;20212;-65
2022/10/13 04:31:21;;;;;;;14.63;9.20;;;;;;;10.30;100.00;95129.31;5072913;28;20183;-66
2022/10/13 04:33:46;;;;;;;13.97;9.07;;;;;;;10.29;100.00;95128.50;5072867;28;20216;-65
2022/10/13 04:36:13;;;;;;;13.57;10.13;;;;;;;10.39;100.00;95123.53;5072871;28;20195;-65
2022/10/13 04:38:39;;;;;;;12.37;9.20;;;;;;;10.73;100.00;95122.53;5071526;28;20197;-62
2022/10/13 04:41:05;;;;;;;12.10;8.90;;;;;;;10.69;100.00;95116.06;5072611;28;20720;-65
2022/10/13 04:43:32;;;;;;;14.73;9.37;;;;;;;10.88;100.00;95129.00;5072683;28;20217;-66
2022/10/13 04:46:02;;;;;;;12.87;8.47;;;;;;;10.97;100.00;95136.69;5054715;28;20567;-62
2022/10/13 04:48:28;;;;;;;15.83;9.63;;;;;;;10.71;100.00;95134.56;5071209;28;20193;-62
2022/10/13 04:51:01;;;;;;;15.10;9.90;;;;;;;10.49;100.00;95119.34;5072522;28;20650;-63
2022/10/13 04:53:34;;;;;;;17.27;8.83;;;;;;;10.57;100.00;95127.19;5072877;28;20193;-63
2022/10/13 04:56:02;;;;;;;16.20;9.70;;;;;;;10.60;100.00;95122.72;5054454;28;20228;-64
2022/10/13 04:58:27;;;;;;;12.33;9.13;;;;;;;10.46;100.00;95125.50;5054439;28;20278;-63
2022/10/13 05:00:53;;;;;;;16.93;10.10;;;;;;;10.19;100.00;95129.31;5072399;28;20268;-65
2022/10/13 05:03:18;;;;;;;25.57;11.30;;;;;;;10.04;100.00;95136.31;5072281;28;20208;-65
2022/10/13 05:05:44;;;;;;;18.97;11.40;;;;;;;10.06;100.00;95135.28;5072235;28;20204;-65
2022/10/13 05:08:10;;;;;;;20.20;10.90;;;;;;;10.43;100.00;95137.63;5072385;28;20227;-65
2022/10/13 05:10:35;;;;;;;21.60;11.27;;;;;;;10.18;100.00;95137.88;5072214;28;20690;-62
2022/10/13 05:13:02;;;;;;;20.97;12.00;;;;;;;10.08;100.00;95151.22;5071945;28;20380;-62
2022/10/13 05:15:28;;;;;;;19.63;13.30;;;;;;;10.08;100.00;95137.69;5070674;28;20307;-61
2022/10/13 05:17:53;;;;;;;20.67;12.63;;;;;;;10.01;100.00;95147.53;5071920;28;20319;-60
2022/10/13 05:20:19;;;;;;;26.90;13.83;;;;;;;9.92;100.00;95148.19;5071955;28;20201;-65
2022/10/13 05:22:44;;;;;;;29.00;14.43;;;;;;;9.82;100.00;95152.34;5071981;28;20184;-65
2022/10/13 05:25:09;;;;;;;24.30;13.90;;;;;;;9.76;100.00;95151.97;5070461;28;20219;-65
2022/10/13 05:27:35;;;;;;;21.57;13.30;;;;;;;9.57;100.00;95150.00;5071900;28;20510;-63
2022/10/13 05:30:00;;;;;;;30.37;16.03;;;;;;;9.50;100.00;95155.63;5072050;28;20685;-64
2022/10/13 05:32:26;;;;;;;32.83;15.30;;;;;;;9.59;100.00;95163.38;5071917;28;20632;-64
2022/10/13 05:34:51;;;;;;;25.30;13.93;;;;;;;9.66;100.00;95164.53;5072047;28;20797;-66
2022/10/13 05:37:17;;;;;;;26.03;15.83;;;;;;;9.70;100.00;95170.19;5071890;28;20177;-63
2022/10/13 05:39:43;;;;;;;25.17;13.63;;;;;;;9.74;100.00;95172.41;5071976;28;20217;-67
2022/10/13 05:42:09;;;;;;;19.43;13.47;;;;;;;9.74;100.00;95185.09;5071802;28;20234;-62
2022/10/13 05:44:36;;;;;;;20.10;13.43;;;;;;;9.75;100.00;95184.19;5071501;28;20224;-66
2022/10/13 05:47:02;;;;;;;20.93;14.23;;;;;;;9.86;100.00;95183.38;5071759;28;20619;-63
2022/10/13 05:49:28;;;;;;;27.33;15.17;;;;;;;10.11;100.00;95186.59;5053697;28;20224;-63
2022/10/13 05:51:58;;;;;;;22.87;14.03;;;;;;;10.26;100.00;95194.00;5071571;28;20177;-63
2022/10/13 05:54:36;;;;;;;24.93;14.63;;;;;;;10.71;100.00;95188.78;5052904;28;20225;-62
2022/10/13 05:57:11;;;;;;;22.77;15.50;;;;;;;10.50;100.00;95192.16;5071831;28;20732;-62
2022/10/13 05:59:42;;;;;;;20.40;14.80;;;;;;;10.57;100.00;95188.22;5053397;28;20216;-63
2022/10/13 06:02:11;;;;;;;22.63;14.03;;;;;;;10.57;100.00;95190.75;5071408;28;20189;-63
2022/10/13 06:04:42;;;;;;;30.30;15.57;;;;;;;10.37;100.00;95204.16;5071113;28;20304;-63
2022/10/13 06:07:08;;;;;;;21.00;15.00;;;;;;;10.43;100.00;95208.78;5071266;28;20246;-66
2022/10/13 06:09:39;;;;;;;22.97;14.33;;;;;;;10.35;100.00;95199.19;5070935;28;20247;-63
2022/10/13 06:12:06;;;;;;;25.17;15.57;;;;;;;10.14;100.00;95181.28;5071273;28;20184;-62
2022/10/13 06:14:31;;;;;;;20.43;14.07;;;;;;;10.34;100.00;95194.22;5071350;28;20234;-62
2022/10/13 06:16:57;;;;;;;21.93;14.77;;;;;;;10.46;100.00;95198.41;5053281;28;20192;-66
2022/10/13 06:19:22;;;;;;;26.30;18.23;;;;;;;10.38;100.00;95198.97;5069869;28;20760;-64
2022/10/13 06:21:48;;;;;;;25.90;16.17;;;;;;;10.58;100.00;95202.56;5071089;28;20583;-62
2022/10/13 06:24:13;;;;;;;28.50;16.27;;;;;;;10.71;100.00;95205.75;5071191;28;20281;-65
2022/10/13 06:26:39;;;;;;;28.77;19.47;;;;;;;10.88;100.00;95197.66;5070975;28;20199;-65
2022/10/13 06:29:04;;;;;;;36.70;18.30;;;;;;;11.03;100.00;95211.72;5052696;28;20216;-63
2022/10/13 06:31:30;;;;;;;29.50;18.90;;;;;;;11.15;100.00;95205.69;5070891;28;20184;-65
2022/10/13 06:33:56;;;;;;;31.73;18.37;;;;;;;11.22;100.00;95219.56;5071028;28;20251;-62
2022/10/13 06:36:41;;;;;;;27.43;17.73;;;;;;;11.17;100.00;95208.13;5070747;28;20181;-65
2022/10/13 06:39:08;;;;;;;26.00;17.93;;;;;;;11.05;100.00;95206.53;5071152;28;20208;-66
2022/10/13 06:41:33;;;;;;;28.67;19.17;;;;;;;11.01;100.00;95197.53;5070727;28;20204;-66
2022/10/13 06:43:58;;;;;;;30.50;20.43;;;;;;;11.16;100.00;95207.31;5070551;28;20714;-66
2022/10/13 06:46:24;;;;;;;31.87;22.83;;;;;;;11.24;100.00;95220.25;5070654;28;20282;-66
2022/10/13 06:48:51;;;;;;;31.60;20.37;;;;;;;11.44;100.00;95218.69;5070703;28;20329;-66
2022/10/13 06:51:16;;;;;;;28.40;21.27;;;;;;;11.51;100.00;95214.72;5052616;28;20188;-65
2022/10/13 06:53:41;;;;;;;33.10;21.77;;;;;;;11.45;100.00;95199.94;5070509;28;20203;-66
2022/10/13 06:56:08;;;;;;;31.80;19.83;;;;;;;11.43;100.00;95205.13;5070594;28;20722;-67
2022/10/13 06:58:35;;;;;;;36.87;21.07;;;;;;;11.53;100.00;95208.56;5070350;28;20199;-67
2022/10/13 07:01:01;;;;;;;29.77;20.67;;;;;;;11.59;100.00;95220.84;5070409;28;20265;-66
2022/10/13 07:03:26;;;;;;;31.47;21.10;;;;;;;11.86;100.00;95232.31;5070544;28;20240;-65
2022/10/13 07:05:52;;;;;;;26.90;19.13;;;;;;;12.13;100.00;95240.28;5072347;28;20180;-66
2022/10/13 07:08:18;;;;;;;24.73;17.57;;;;;;;12.16;100.00;95253.56;5074112;28;20270;-66
2022/10/13 07:10:43;;;;;;;27.87;18.00;;;;;;;12.22;100.00;95252.28;5073745;28;20209;-65
2022/10/13 07:13:09;;;;;;;28.53;18.30;;;;;;;12.31;100.00;95242.13;5073995;28;20219;-65
2022/10/13 07:15:39;;;;;;;38.07;24.17;;;;;;;12.10;100.00;95184.47;5072417;28;20346;-65
2022/10/13 07:18:05;;;;;;;40.07;24.37;;;;;;;12.15;100.00;95187.44;5072677;28;20193;-62
2022/10/13 07:20:31;;;;;;;31.40;20.13;;;;;;;12.32;100.00;95223.34;5073876;28;20257;-63
2022/10/13 07:22:56;;;;;;;35.70;21.13;;;;;;;12.31;100.00;95197.97;5104490;22;20224;-62
2022/10/13 07:25:21;;;;;;;43.20;23.53;;;;;;;12.32;100.00;95169.00;5073703;28;20240;-61
2022/10/13 07:27:47;;;;;;;42.00;24.23;;;;;;;12.56;100.00;95192.47;5073721;28;20606;-61
2022/10/13 07:30:12;;;;;;;51.00;26.27;;;;;;;12.59;100.00;95203.22;5073597;28;20215;-62
2022/10/13 07:32:40;;;;;;;42.17;25.57;;;;;;;12.42;100.00;95192.81;5073879;28;20639;-63
2022/10/13 07:35:08;;;;;;;46.60;25.40;;;;;;;12.65;100.00;95219.72;5073487;28;20200;-62
2022/10/13 07:37:35;;;;;;;39.40;24.00;;;;;;;12.83;100.00;95223.28;5073788;28;20212;-60
2022/10/13 07:40:00;;;;;;;46.57;26.07;;;;;;;12.63;100.00;95198.66;5073503;28;20223;-62
2022/10/13 07:42:26;;;;;;;40.20;25.43;;;;;;;12.58;100.00;95204.13;5073662;28;20185;-60
2022/10/13 07:44:51;;;;;;;44.63;24.60;;;;;;;12.82;100.00;95211.47;5073152;28;20216;-65
2022/10/13 07:47:17;;;;;;;46.23;24.67;;;;;;;12.99;100.00;95210.84;5038746;28;20193;-63
2022/10/13 07:49:42;;;;;;;37.37;22.77;;;;;;;13.10;100.00;95236.31;5073386;28;20230;-63
2022/10/13 07:52:08;;;;;;;33.73;22.17;;;;;;;12.98;100.00;95236.50;5073570;28;20193;-62
2022/10/13 07:54:33;;;;;;;40.33;22.63;;;;;;;13.45;100.00;95287.72;5073333;28;20736;-63
2022/10/13 07:56:59;;;;;;;37.17;22.67;;;;;;;13.26;100.00;95253.66;5072933;28;20781;-64
2022/10/13 07:59:24;;;;;;;37.60;22.40;;;;;;;13.08;100.00;95235.63;5072054;28;20690;-62
2022/10/13 08:01:50;;;;;;;34.47;22.02;;;;;;;12.82;100.00;95210.66;5073107;28;20196;-62
2022/10/13 08:04:15;;;;;;;33.47;21.23;;;;;;;12.95;100.00;95208.72;5072986;28;20204;-61
2022/10/13 08:06:41;;;;;;;38.83;21.77;;;;;;;13.28;100.00;95236.47;5054901;28;20583;-62
2022/10/13 08:09:07;;;;;;;30.77;20.73;;;;;;;13.46;100.00;95230.59;5072935;28;20578;-62
2022/10/13 08:11:33;;;;;;;30.33;21.70;;;;;;;13.36;100.00;95234.06;5072962;28;20192;-62
2022/10/13 08:14:02;;;;;;;35.10;20.63;;;;;;;13.74;100.00;95251.16;5072897;28;20205;-62
2022/10/13 08:16:28;;;;;;;30.27;20.33;;;;;;;13.98;100.00;95259.22;5072416;28;20177;-61
2022/10/13 08:18:55;;;;;;;30.58;20.20;;;;;;;14.25;100.00;95255.06;5072540;28;20216;-62
2022/10/13 08:21:23;;;;;;;29.05;19.13;;;;;;;14.40;100.00;95281.03;5072575;28;20246;-62
2022/10/13 08:23:49;;;;;;;34.05;20.40;;;;;;;14.60;100.00;95312.50;5054492;28;20204;-61
2022/10/13 08:26:24;;;;;;;31.67;21.37;;;;;;;14.56;100.00;95306.06;5070994;28;20184;-62
2022/10/13 08:28:50;;;;;;;29.50;19.85;;;;;;;14.71;100.00;95302.09;5072432;28;20361;-65
2022/10/13 08:31:15;;;;;;;30.88;21.05;;;;;;;14.88;100.00;95297.09;5072766;28;20319;-64
2022/10/13 08:33:41;;;;;;;33.22;18.70;;;;;;;15.14;100.00;95156.38;5072830;28;20272;-64
2022/10/13 08:36:07;;;;;;;30.17;20.23;;;;;;;15.30;100.00;95253.88;5072738;28;20310;-62
2022/10/13 08:38:34;;;;;;;29.52;19.63;;;;;;;15.27;100.00;95312.28;5072535;28;20720;-61
2022/10/13 08:41:00;;;;;;;31.77;19.40;;;;;;;15.49;100.00;95346.06;5072648;28;20218;-61
2022/10/13 08:43:26;;;;;;;27.67;19.13;;;;;;;15.96;100.00;95357.78;5072606;28;20212;-64
2022/10/13 08:45:57;;;;;;;31.83;19.02;;;;;;;16.07;100.00;95387.56;5054133;28;20276;-65
2022/10/13 08:48:26;;;;;;;29.40;18.30;;;;;;;16.22;100.00;95380.16;5054692;28;20196;-61
2022/10/13 08:50:57;;;;;;;31.83;18.30;;;;;;;16.26;100.00;95377.13;5072092;28;20185;-60
2022/10/13 08:53:33;;;;;;;24.83;17.77;;;;;;;16.38;100.00;95321.28;5072275;28;20280;-62
2022/10/13 08:56:07;;;;;;;28.42;19.15;;;;;;;16.31;100.00;95390.34;5071991;28;20259;-65
2022/10/13 08:58:34;;;;;;;26.63;18.60;;;;;;;16.27;100.00;95360.81;5071848;28;20193;-65
2022/10/13 09:01:00;;;;;;;25.98;18.35;;;;;;;16.32;100.00;95340.63;5072104;28;20184;-65
2022/10/13 09:03:28;;;;;;;28.88;18.52;;;;;;;16.84;100.00;95371.56;5072388;28;20204;-65
2022/10/13 09:06:14;;;;;;;27.75;19.90;;;;;;;16.73;100.00;95416.25;5053837;28;20272;-65
2022/10/13 09:08:58;;;;;;;29.65;18.40;;;;;;;17.07;100.00;95378.59;5072300;28;20195;-62
2022/10/13 09:11:42;;;;;;;27.55;18.05;;;;;;;17.12;100.00;95422.66;5071410;28;20189;-61
2022/10/13 09:14:11;;;;;;;31.85;18.08;;;;;;;17.50;100.00;95422.25;5071834;28;20208;-61
2022/10/13 09:16:42;;;;;;;28.52;18.48;;;;;;;17.50;100.00;95388.03;5071875;28;20185;-63
2022/10/13 09:19:35;;;;;;;24.05;17.30;;;;;;;17.50;100.00;95432.56;5071857;28;20308;-65
2022/10/13 09:22:24;;;;;;;27.65;16.85;;;;;;;17.11;100.00;95399.69;5071733;28;20185;-65
2022/10/13 09:25:10;;;;;;;29.55;15.80;;;;;;;17.58;100.00;95400.94;5071178;28;20295;-62
2022/10/13 09:27:57;;;;;;;24.35;15.90;;;;;;;17.89;100.00;95425.19;5052106;28;20628;-64
2022/10/13 09:30:37;;;;;;;23.90;15.93;;;;;;;18.29;98.29;95473.41;5069980;28;20219;-61
2022/10/13 09:33:08;;;;;;;26.33;16.15;;;;;;;18.59;97.30;95454.00;5068537;28;20193;-63
2022/10/13 09:35:54;;;;;;;18.35;13.63;;;;;;;18.67;94.41;95496.06;5051139;28;20303;-65
2022/10/13 09:38:22;;;;;;;15.10;11.07;;;;;;;18.64;95.36;95450.00;5059140;28;20204;-64
2022/10/13 09:41:06;;;;;;;20.00;12.65;;;;;;;18.86;94.72;95453.72;5069916;28;20698;-63
2022/10/13 09:43:39;;;;;;;16.83;11.57;;;;;;;19.02;94.93;95446.00;5071293;28;20212;-64
2022/10/13 09:46:25;;;;;;;26.13;12.63;;;;;;;19.12;95.27;95418.28;5071583;28;20185;-61
2022/10/13 09:49:05;;;;;;;19.83;12.77;;;;;;;19.37;84.57;95488.72;5071187;28;20216;-65
2022/10/13 09:51:36;;;;;;;19.35;12.32;;;;;;;19.40;76.26;95484.03;5071533;28;20185;-63
2022/10/13 09:54:03;;;;;;;16.42;11.07;;;;;;;19.43;74.29;95470.00;5071207;28;20216;-61
2022/10/13 09:56:28;;;;;;;18.60;11.60;;;;;;;19.80;76.56;95416.03;5071328;28;20196;-60
2022/10/13 09:59:32;;;;;;;16.08;10.82;;;;;;;20.24;73.51;95470.59;5071466;28;20297;-60
2022/10/13 10:02:02;;;;;;;17.27;10.88;;;;;;;20.44;74.01;95444.16;5071006;28;20654;-65
2022/10/13 10:04:36;;;;;;;16.85;10.63;;;;;;;20.90;70.40;95512.22;5071141;28;20240;-64
2022/10/13 10:07:11;;;;;;;14.23;10.18;;;;;;;20.79;70.61;95484.97;5071305;28;20177;-66
2022/10/13 10:09:52;;;;;;;22.70;11.02;;;;;;;20.54;68.09;95529.22;5071019;28;20212;-62
2022/10/13 10:12:22;;;;;;;22.45;11.55;;;;;;;20.75;67.86;95522.47;5071366;28;20199;-62
2022/10/13 10:14:49;;;;;;;16.75;10.73;;;;;;;20.61;67.89;95505.09;5053079;28;20300;-64
2022/10/13 10:17:40;;;;;;;16.60;11.52;;;;;;;19.88;68.68;95457.28;5097992;22;20700;-63
2022/10/13 10:22:50;;;;;;;21.27;11.25;;;;;;;19.82;71.74;95383.94;5096493;22;20638;-62
2022/10/13 10:25:29;;;;;;;13.75;9.85;;;;;;;19.72;70.22;95409.13;5070512;28;20244;-61
2022/10/13 10:28:16;;;;;;;13.13;8.73;;;;;;;19.84;68.17;95458.59;5071120;28;20184;-61
2022/10/13 10:31:03;;;;;;;16.92;9.95;;;;;;;19.33;71.46;95366.19;5071007;28;20224;-61
2022/10/13 10:33:53;;;;;;;13.35;9.80;;;;;;;19.41;71.85;95364.44;5069127;28;20217;-61
2022/10/13 10:36:27;;;;;;;13.38;10.45;;;;;;;19.14;70.57;95380.25;5071151;28;20677;-64
2022/10/13 10:39:16;;;;;;;13.95;9.95;;;;;;;19.38;69.72;95392.31;5070457;28;20210;-64
2022/10/13 10:42:31;;;;;;;19.20;9.90;;;;;;;19.79;68.88;95412.66;5070967;28;20193;-61
2022/10/13 10:45:00;;;;;;;13.50;9.18;;;;;;;19.47;68.95;95399.88;4979529;28;20228;-60
2022/10/13 10:47:32;;;;;;;14.07;8.93;;;;;;;19.94;69.91;95372.25;5070650;28;20263;-62
2022/10/13 10:50:04;;;;;;;16.15;10.05;;;;;;;20.16;68.21;95412.00;5070568;28;20236;-62
2022/10/13 10:52:48;;;;;;;18.92;11.20;;;;;;;20.64;67.98;95406.59;5070336;28;20250;-61
2022/10/13 10:55:19;;;;;;;12.40;9.48;;;;;;;20.49;67.48;95415.22;5069412;28;20215;-61
2022/10/13 10:57:55;;;;;;;13.65;10.20;;;;;;;20.54;66.92;95418.91;5068952;28;20229;-63
2022/10/13 11:00:22;;;;;;;15.27;9.35;;;;;;;20.36;68.03;95384.00;5050763;28;20219;-60
2022/10/13 11:03:06;;;;;;;16.17;9.07;;;;;;;20.72;65.78;95436.72;5070421;28;20188;-61
2022/10/13 11:05:58;;;;;;;13.77;9.45;;;;;;;20.83;65.40;95431.94;5071255;28;20209;-62
2022/10/13 11:08:45;;;;;;;13.23;8.27;;;;;;;21.17;64.59;95447.03;5070324;28;20271;-60
2022/10/13 11:11:24;;;;;;;13.02;8.52;;;;;;;21.69;64.69;95429.69;5052136;28;20211;-65
2022/10/13 11:13:56;;;;;;;12.13;9.43;;;;;;;21.25;63.07;95448.78;5059319;22;20287;-63
2022/10/13 11:16:58;;;;;;;14.40;10.10;;;;;;;21.20;61.57;95495.84;5070282;28;20564;-63
2022/10/13 11:19:36;;;;;;;13.73;7.95;;;;;;;21.19;63.19;95439.13;5070166;28;20212;-64
2022/10/13 11:22:01;;;;;;;14.27;8.75;;;;;;;21.14;63.82;95410.38;5070156;28;20275;-61
2022/10/13 11:24:32;;;;;;;14.57;8.35;;;;;;;20.91;63.87;95403.44;5069537;28;20299;-62
2022/10/13 11:27:06;;;;;;;12.85;8.57;;;;;;;21.01;64.72;95379.91;5068570;28;20250;-63
2022/10/13 11:29:52;;;;;;;12.35;8.68;;;;;;;21.14;63.92;95390.50;5068962;28;20200;-64
2022/10/13 11:32:24;;;;;;;10.90;7.85;;;;;;;21.14;64.08;95382.75;5070262;28;20181;-60
2022/10/13 11:35:05;;;;;;;10.40;7.55;;;;;;;21.24;62.93;95414.34;5069914;28;20291;-61